23:43 MESZ | 05.09.2026 Profi-Wetter| Mobile Seite| Kontakt| Impressum| Datenschutz
Social

Wetterstation Fritzlar (Flugplatz)

Messwerte
  Temperatur Wetter Niederschlag Luftdruck Wind
Sa, 23:20 Uhr 14° - - 1025 hPa 5 km/h NW
Sa, 23:00 Uhr 15° - - 1025 hPa 7 km/h W
Sa, 22:00 Uhr 15° - - 1025 hPa 7 km/h W
Sa, 21:00 Uhr 17° - - 1024 hPa 4 km/h N
Sa, 20:00 Uhr 18° - 0 mm 1023 hPa 7 km/h W

Böen 50 km/h
Sa, 19:00 Uhr 20° - - 1022 hPa 14 km/h NW
Sa, 18:00 Uhr 20° - - 1022 hPa 14 km/h W
Sa, 17:00 Uhr 21° - - 1021 hPa 25 km/h W

Böen 50 km/h
Sa, 16:00 Uhr 21° - - 1021 hPa 32 km/h W
Sa, 15:00 Uhr 20° - - 1021 hPa 29 km/h W

Böen 50 km/h
Sa, 14:00 Uhr 21° - - 1020 hPa 25 km/h W
Sa, 13:00 Uhr 19° - - 1020 hPa 25 km/h W
Sa, 12:00 Uhr 19° - - 1020 hPa 22 km/h W
Sa, 11:00 Uhr 18° - - 1020 hPa 22 km/h W

Böen 40 km/h
Sa, 10:00 Uhr 17° - - 1020 hPa 18 km/h SW
Sa, 09:00 Uhr 14° - - 1019 hPa 14 km/h SW
Sa, 08:00 Uhr 13° - 8 mm 1019 hPa 0 km/h SW
Sa, 07:00 Uhr 12° - - 1018 hPa 4 km/h NW
Sa, 06:00 Uhr 12° - - 1018 hPa 4 km/h N
Sa, 05:00 Uhr 12° - - 1017 hPa 4 km/h W

Alle Zeitangaben MESZ